Terminal Aerodrome Forecast
Issued by NWS Grand Forks, ND

Home | Current Version | Previous Version | Graphics & Text | Print | Product List | Glossary On
Versions: 1 2 3 4 5 6 7 8 9 10 11 12 13 14 15 16 17 18 19 20 21 22 23
000
FTUS43 KFGF 231700 AAA
TAFGFK
TAF AMD
KGFK 231703Z 2317/2412 26010KT P6SM BKN040
     FM231900 35012KT P6SM BKN025
     FM232100 32022G30KT 4SM -SN OVC015=

USA.gov is the U.S. government's official web portal to all federal, state and local government web resources and services.